sensor_id;sensor_type;location;lat;lon;timestamp;pressure;altitude;pressure_sealevel;temperature;humidity
84022;BME280;74108;48.636;9.492;2024-01-10T00:01:58;98597.13;;;-4.91;73.97
84022;BME280;74108;48.636;9.492;2024-01-10T00:04:23;98595.56;;;-4.73;72.96
84022;BME280;74108;48.636;9.492;2024-01-10T00:06:50;98594.34;;;-4.88;72.25
84022;BME280;74108;48.636;9.492;2024-01-10T00:09:15;98599.75;;;-4.72;72.55
84022;BME280;74108;48.636;9.492;2024-01-10T00:11:41;98601.53;;;-4.63;72.25
84022;BME280;74108;48.636;9.492;2024-01-10T00:14:06;98596.78;;;-4.77;72.45
84022;BME280;74108;48.636;9.492;2024-01-10T00:16:32;98587.25;;;-4.66;73.11
84022;BME280;74108;48.636;9.492;2024-01-10T00:18:57;98603.97;;;-4.43;72.78
84022;BME280;74108;48.636;9.492;2024-01-10T00:21:23;98587.56;;;-4.50;74.42
84022;BME280;74108;48.636;9.492;2024-01-10T00:23:48;98593.72;;;-4.62;75.33
84022;BME280;74108;48.636;9.492;2024-01-10T00:26:14;98592.38;;;-4.66;75.56
84022;BME280;74108;48.636;9.492;2024-01-10T00:28:40;98590.88;;;-4.68;75.36
84022;BME280;74108;48.636;9.492;2024-01-10T00:31:05;98593.88;;;-4.44;73.65
84022;BME280;74108;48.636;9.492;2024-01-10T00:33:31;98582.72;;;-4.43;73.58
84022;BME280;74108;48.636;9.492;2024-01-10T00:35:56;98583.66;;;-4.44;74.21
84022;BME280;74108;48.636;9.492;2024-01-10T00:38:23;98592.03;;;-4.42;74.43
84022;BME280;74108;48.636;9.492;2024-01-10T00:40:52;98585.41;;;-4.26;75.07
84022;BME280;74108;48.636;9.492;2024-01-10T00:43:20;98590.16;;;-4.31;74.54
84022;BME280;74108;48.636;9.492;2024-01-10T00:45:46;98594.44;;;-4.12;73.93
84022;BME280;74108;48.636;9.492;2024-01-10T00:48:11;98594.47;;;-4.21;74.21
84022;BME280;74108;48.636;9.492;2024-01-10T00:50:36;98593.38;;;-4.29;74.48
84022;BME280;74108;48.636;9.492;2024-01-10T00:53:02;98601.06;;;-4.19;73.97
84022;BME280;74108;48.636;9.492;2024-01-10T00:55:27;98591.34;;;-4.25;73.47
84022;BME280;74108;48.636;9.492;2024-01-10T00:57:53;98584.91;;;-4.19;73.01
84022;BME280;74108;48.636;9.492;2024-01-10T01:00:18;98587.31;;;-4.28;72.78
84022;BME280;74108;48.636;9.492;2024-01-10T01:02:43;98585.81;;;-4.30;74.43
84022;BME280;74108;48.636;9.492;2024-01-10T01:05:09;98586.22;;;-4.25;74.38
84022;BME280;74108;48.636;9.492;2024-01-10T01:07:35;98592.28;;;-4.16;74.58
84022;BME280;74108;48.636;9.492;2024-01-10T01:10:01;98589.63;;;-4.15;73.92
84022;BME280;74108;48.636;9.492;2024-01-10T01:12:26;98586.09;;;-4.14;74.62
84022;BME280;74108;48.636;9.492;2024-01-10T01:14:52;98583.28;;;-4.01;74.10
84022;BME280;74108;48.636;9.492;2024-01-10T01:17:18;98583.28;;;-3.92;74.05
84022;BME280;74108;48.636;9.492;2024-01-10T01:19:44;98592.16;;;-3.96;73.76
84022;BME280;74108;48.636;9.492;2024-01-10T01:22:10;98591.88;;;-3.93;73.19
84022;BME280;74108;48.636;9.492;2024-01-10T01:24:35;98596.06;;;-3.82;73.14
84022;BME280;74108;48.636;9.492;2024-01-10T01:27:02;98590.53;;;-3.87;72.71
84022;BME280;74108;48.636;9.492;2024-01-10T01:29:28;98597.41;;;-3.88;72.37
84022;BME280;74108;48.636;9.492;2024-01-10T01:31:54;98594.84;;;-3.97;73.06
84022;BME280;74108;48.636;9.492;2024-01-10T01:34:19;98590.41;;;-4.05;72.38
84022;BME280;74108;48.636;9.492;2024-01-10T01:36:45;98602.00;;;-4.10;72.89
84022;BME280;74108;48.636;9.492;2024-01-10T01:39:11;98601.59;;;-3.96;72.78
84022;BME280;74108;48.636;9.492;2024-01-10T01:41:38;98602.41;;;-4.05;72.96
84022;BME280;74108;48.636;9.492;2024-01-10T01:44:04;98598.88;;;-4.23;73.58
84022;BME280;74108;48.636;9.492;2024-01-10T01:46:30;98599.94;;;-4.16;73.08
84022;BME280;74108;48.636;9.492;2024-01-10T01:48:56;98602.91;;;-4.21;74.12
84022;BME280;74108;48.636;9.492;2024-01-10T01:51:22;98604.38;;;-4.28;75.45
84022;BME280;74108;48.636;9.492;2024-01-10T01:53:48;98603.84;;;-4.32;75.01
84022;BME280;74108;48.636;9.492;2024-01-10T01:56:15;98603.34;;;-4.35;75.11
84022;BME280;74108;48.636;9.492;2024-01-10T01:58:42;98595.25;;;-4.40;75.43
84022;BME280;74108;48.636;9.492;2024-01-10T02:01:09;98606.81;;;-4.36;75.60
84022;BME280;74108;48.636;9.492;2024-01-10T02:03:36;98593.63;;;-4.41;75.66
84022;BME280;74108;48.636;9.492;2024-01-10T02:06:02;98603.16;;;-4.43;74.93
84022;BME280;74108;48.636;9.492;2024-01-10T02:08:34;98591.31;;;-4.44;74.39
84022;BME280;74108;48.636;9.492;2024-01-10T02:11:01;98592.66;;;-4.50;75.08
84022;BME280;74108;48.636;9.492;2024-01-10T02:13:27;98589.47;;;-4.42;75.76
84022;BME280;74108;48.636;9.492;2024-01-10T02:15:52;98591.59;;;-4.28;74.91
84022;BME280;74108;48.636;9.492;2024-01-10T02:18:19;98591.09;;;-4.22;74.28
84022;BME280;74108;48.636;9.492;2024-01-10T02:20:45;98590.41;;;-4.05;73.33
84022;BME280;74108;48.636;9.492;2024-01-10T02:23:10;98590.00;;;-3.91;71.76
84022;BME280;74108;48.636;9.492;2024-01-10T02:25:36;98582.88;;;-3.87;71.66
84022;BME280;74108;48.636;9.492;2024-01-10T02:28:02;98584.06;;;-3.82;71.68
84022;BME280;74108;48.636;9.492;2024-01-10T02:30:27;98570.88;;;-3.87;71.28
84022;BME280;74108;48.636;9.492;2024-01-10T02:32:53;98571.25;;;-3.82;71.61
84022;BME280;74108;48.636;9.492;2024-01-10T02:35:18;98572.50;;;-3.86;72.17
84022;BME280;74108;48.636;9.492;2024-01-10T02:37:43;98577.44;;;-3.75;72.18
84022;BME280;74108;48.636;9.492;2024-01-10T02:40:10;98572.47;;;-3.76;73.59
84022;BME280;74108;48.636;9.492;2024-01-10T02:42:36;98567.75;;;-3.71;73.22
84022;BME280;74108;48.636;9.492;2024-01-10T02:45:01;98576.75;;;-3.58;72.43
84022;BME280;74108;48.636;9.492;2024-01-10T02:47:26;98571.75;;;-3.59;72.68
84022;BME280;74108;48.636;9.492;2024-01-10T02:49:54;98571.25;;;-3.63;72.57
84022;BME280;74108;48.636;9.492;2024-01-10T02:52:19;98569.75;;;-3.56;72.27
84022;BME280;74108;48.636;9.492;2024-01-10T02:54:45;98571.97;;;-3.43;70.74
84022;BME280;74108;48.636;9.492;2024-01-10T02:57:16;98565.84;;;-3.50;72.15
84022;BME280;74108;48.636;9.492;2024-01-10T02:59:42;98549.69;;;-3.70;73.46
84022;BME280;74108;48.636;9.492;2024-01-10T03:02:07;98561.50;;;-3.49;72.82
84022;BME280;74108;48.636;9.492;2024-01-10T03:04:33;98544.41;;;-3.59;71.72
84022;BME280;74108;48.636;9.492;2024-01-10T03:06:58;98546.03;;;-3.58;71.31
84022;BME280;74108;48.636;9.492;2024-01-10T03:09:24;98541.75;;;-3.67;71.43
84022;BME280;74108;48.636;9.492;2024-01-10T03:11:49;98556.69;;;-3.52;71.46
84022;BME280;74108;48.636;9.492;2024-01-10T03:14:14;98550.75;;;-3.53;71.68
84022;BME280;74108;48.636;9.492;2024-01-10T03:16:40;98547.63;;;-3.57;71.32
84022;BME280;74108;48.636;9.492;2024-01-10T03:19:06;98558.03;;;-3.58;71.70
84022;BME280;74108;48.636;9.492;2024-01-10T03:21:34;98555.06;;;-3.63;70.98
84022;BME280;74108;48.636;9.492;2024-01-10T03:24:01;98538.78;;;-3.62;71.16
84022;BME280;74108;48.636;9.492;2024-01-10T03:26:27;98542.56;;;-3.66;70.76
84022;BME280;74108;48.636;9.492;2024-01-10T03:28:53;98541.59;;;-3.65;70.71
84022;BME280;74108;48.636;9.492;2024-01-10T03:31:19;98524.94;;;-3.79;71.01
84022;BME280;74108;48.636;9.492;2024-01-10T03:33:46;98541.34;;;-3.62;70.71
84022;BME280;74108;48.636;9.492;2024-01-10T03:36:14;98525.44;;;-3.66;70.74
84022;BME280;74108;48.636;9.492;2024-01-10T03:38:40;98532.59;;;-3.69;70.96
84022;BME280;74108;48.636;9.492;2024-01-10T03:41:05;98528.47;;;-3.43;70.00
84022;BME280;74108;48.636;9.492;2024-01-10T03:43:31;98531.41;;;-3.38;70.32
84022;BME280;74108;48.636;9.492;2024-01-10T03:46:00;98525.53;;;-3.48;70.01
84022;BME280;74108;48.636;9.492;2024-01-10T03:48:26;98524.53;;;-3.37;71.12
84022;BME280;74108;48.636;9.492;2024-01-10T03:50:51;98538.56;;;-3.32;70.46
84022;BME280;74108;48.636;9.492;2024-01-10T03:53:19;98537.34;;;-3.37;70.20
84022;BME280;74108;48.636;9.492;2024-01-10T03:55:45;98540.09;;;-3.48;70.15
84022;BME280;74108;48.636;9.492;2024-01-10T03:58:10;98525.94;;;-3.52;70.56
84022;BME280;74108;48.636;9.492;2024-01-10T04:00:35;98543.56;;;-3.49;69.99
84022;BME280;74108;48.636;9.492;2024-01-10T04:03:01;98535.91;;;-3.59;70.40
84022;BME280;74108;48.636;9.492;2024-01-10T04:05:26;98536.03;;;-3.51;69.90
84022;BME280;74108;48.636;9.492;2024-01-10T04:07:52;98527.56;;;-3.61;70.17
84022;BME280;74108;48.636;9.492;2024-01-10T04:10:17;98537.78;;;-3.51;70.37
84022;BME280;74108;48.636;9.492;2024-01-10T04:12:44;98543.31;;;-3.46;69.19
84022;BME280;74108;48.636;9.492;2024-01-10T04:15:10;98531.22;;;-3.64;69.91
84022;BME280;74108;48.636;9.492;2024-01-10T04:17:36;98543.31;;;-3.46;69.71
84022;BME280;74108;48.636;9.492;2024-01-10T04:20:01;98538.69;;;-3.43;70.43
84022;BME280;74108;48.636;9.492;2024-01-10T04:22:27;98531.72;;;-3.41;69.93
84022;BME280;74108;48.636;9.492;2024-01-10T04:24:53;98546.94;;;-3.12;69.03
84022;BME280;74108;48.636;9.492;2024-01-10T04:27:18;98528.94;;;-3.20;69.22
84022;BME280;74108;48.636;9.492;2024-01-10T04:29:44;98533.59;;;-3.06;68.90
84022;BME280;74108;48.636;9.492;2024-01-10T04:32:09;98548.75;;;-2.95;67.71
84022;BME280;74108;48.636;9.492;2024-01-10T04:34:35;98525.16;;;-2.99;67.27
84022;BME280;74108;48.636;9.492;2024-01-10T04:37:00;98543.22;;;-2.91;68.59
84022;BME280;74108;48.636;9.492;2024-01-10T04:39:26;98528.91;;;-2.93;68.64
84022;BME280;74108;48.636;9.492;2024-01-10T04:41:51;98533.47;;;-2.87;67.49
84022;BME280;74108;48.636;9.492;2024-01-10T04:44:16;98531.31;;;-2.92;67.78
84022;BME280;74108;48.636;9.492;2024-01-10T04:46:42;98540.16;;;-3.04;67.91
84022;BME280;74108;48.636;9.492;2024-01-10T04:49:07;98533.81;;;-3.00;68.70
84022;BME280;74108;48.636;9.492;2024-01-10T04:51:33;98521.56;;;-3.06;68.89
84022;BME280;74108;48.636;9.492;2024-01-10T04:53:59;98527.50;;;-3.05;67.77
84022;BME280;74108;48.636;9.492;2024-01-10T04:56:25;98536.31;;;-3.17;68.21
84022;BME280;74108;48.636;9.492;2024-01-10T04:58:51;98525.28;;;-3.18;68.90
84022;BME280;74108;48.636;9.492;2024-01-10T05:01:17;98528.97;;;-3.03;68.93
84022;BME280;74108;48.636;9.492;2024-01-10T05:03:42;98531.38;;;-3.01;68.41
84022;BME280;74108;48.636;9.492;2024-01-10T05:06:08;98526.78;;;-3.25;68.44
84022;BME280;74108;48.636;9.492;2024-01-10T05:08:33;98527.78;;;-3.08;69.07
84022;BME280;74108;48.636;9.492;2024-01-10T05:10:58;98530.44;;;-3.00;69.00
84022;BME280;74108;48.636;9.492;2024-01-10T05:13:24;98532.41;;;-2.94;67.96
84022;BME280;74108;48.636;9.492;2024-01-10T05:15:50;98539.56;;;-2.88;68.88
84022;BME280;74108;48.636;9.492;2024-01-10T05:18:16;98533.19;;;-2.84;67.59
84022;BME280;74108;48.636;9.492;2024-01-10T05:20:42;98538.34;;;-2.94;67.75
84022;BME280;74108;48.636;9.492;2024-01-10T05:23:07;98536.81;;;-3.04;68.04
84022;BME280;74108;48.636;9.492;2024-01-10T05:25:33;98539.22;;;-3.03;68.87
84022;BME280;74108;48.636;9.492;2024-01-10T05:27:59;98538.63;;;-2.97;68.07
84022;BME280;74108;48.636;9.492;2024-01-10T05:30:24;98530.66;;;-2.94;68.81
84022;BME280;74108;48.636;9.492;2024-01-10T05:32:50;98535.53;;;-2.91;68.73
84022;BME280;74108;48.636;9.492;2024-01-10T05:35:16;98540.88;;;-2.84;68.87
84022;BME280;74108;48.636;9.492;2024-01-10T05:37:41;98551.50;;;-2.79;68.30
84022;BME280;74108;48.636;9.492;2024-01-10T05:40:07;98554.41;;;-2.92;68.80
84022;BME280;74108;48.636;9.492;2024-01-10T05:42:32;98543.88;;;-2.89;68.08
84022;BME280;74108;48.636;9.492;2024-01-10T05:45:01;98541.97;;;-2.87;68.42
84022;BME280;74108;48.636;9.492;2024-01-10T05:47:27;98539.84;;;-2.91;68.56
84022;BME280;74108;48.636;9.492;2024-01-10T05:49:53;98539.06;;;-2.74;68.27
84022;BME280;74108;48.636;9.492;2024-01-10T05:52:19;98541.38;;;-2.80;68.33
84022;BME280;74108;48.636;9.492;2024-01-10T05:54:45;98545.63;;;-2.71;68.99
84022;BME280;74108;48.636;9.492;2024-01-10T05:57:11;98546.94;;;-2.85;68.88
84022;BME280;74108;48.636;9.492;2024-01-10T05:59:36;98550.31;;;-2.85;69.24
84022;BME280;74108;48.636;9.492;2024-01-10T06:02:02;98551.53;;;-3.06;68.15
84022;BME280;74108;48.636;9.492;2024-01-10T06:04:28;98550.31;;;-3.12;68.37
84022;BME280;74108;48.636;9.492;2024-01-10T06:06:58;98553.38;;;-3.08;68.63
84022;BME280;74108;48.636;9.492;2024-01-10T06:09:26;98548.88;;;-2.97;69.05
84022;BME280;74108;48.636;9.492;2024-01-10T06:11:52;98550.78;;;-2.99;68.17
84022;BME280;74108;48.636;9.492;2024-01-10T06:14:17;98556.66;;;-3.06;68.06
84022;BME280;74108;48.636;9.492;2024-01-10T06:16:43;98567.28;;;-3.11;68.64
84022;BME280;74108;48.636;9.492;2024-01-10T06:19:10;98572.28;;;-3.09;68.96
84022;BME280;74108;48.636;9.492;2024-01-10T06:21:36;98565.72;;;-3.21;70.63
84022;BME280;74108;48.636;9.492;2024-01-10T06:24:02;98568.28;;;-3.21;71.20
84022;BME280;74108;48.636;9.492;2024-01-10T06:26:28;98567.88;;;-3.17;67.85
84022;BME280;74108;48.636;9.492;2024-01-10T06:28:53;98566.41;;;-3.29;68.12
84022;BME280;74108;48.636;9.492;2024-01-10T06:31:18;98558.19;;;-3.23;67.98
84022;BME280;74108;48.636;9.492;2024-01-10T06:33:44;98562.75;;;-3.17;68.25
84022;BME280;74108;48.636;9.492;2024-01-10T06:36:09;98562.47;;;-3.14;67.84
84022;BME280;74108;48.636;9.492;2024-01-10T06:38:34;98563.56;;;-3.16;67.42
84022;BME280;74108;48.636;9.492;2024-01-10T06:41:00;98559.09;;;-3.14;68.21
84022;BME280;74108;48.636;9.492;2024-01-10T06:43:25;98554.47;;;-3.11;68.45
84022;BME280;74108;48.636;9.492;2024-01-10T06:45:51;98552.59;;;-3.09;68.92
84022;BME280;74108;48.636;9.492;2024-01-10T06:48:16;98554.34;;;-3.09;70.30
84022;BME280;74108;48.636;9.492;2024-01-10T06:50:41;98553.47;;;-3.18;69.87
84022;BME280;74108;48.636;9.492;2024-01-10T06:53:07;98556.44;;;-3.22;70.22
84022;BME280;74108;48.636;9.492;2024-01-10T06:55:33;98551.34;;;-3.32;69.82
84022;BME280;74108;48.636;9.492;2024-01-10T06:57:58;98553.78;;;-3.40;68.99
84022;BME280;74108;48.636;9.492;2024-01-10T07:00:24;98561.38;;;-3.48;70.27
84022;BME280;74108;48.636;9.492;2024-01-10T07:02:49;98563.38;;;-3.51;70.92
84022;BME280;74108;48.636;9.492;2024-01-10T07:05:15;98565.84;;;-3.60;70.41
84022;BME280;74108;48.636;9.492;2024-01-10T07:07:41;98562.91;;;-3.65;70.75
84022;BME280;74108;48.636;9.492;2024-01-10T07:10:07;98571.91;;;-3.61;70.11
84022;BME280;74108;48.636;9.492;2024-01-10T07:12:33;98572.31;;;-3.56;70.07
84022;BME280;74108;48.636;9.492;2024-01-10T07:14:59;98578.78;;;-3.61;69.86
84022;BME280;74108;48.636;9.492;2024-01-10T07:17:25;98584.88;;;-3.72;70.28
84022;BME280;74108;48.636;9.492;2024-01-10T07:19:50;98581.50;;;-3.72;70.32
84022;BME280;74108;48.636;9.492;2024-01-10T07:22:15;98580.72;;;-3.92;71.22
84022;BME280;74108;48.636;9.492;2024-01-10T07:24:43;98574.38;;;-3.88;71.01
84022;BME280;74108;48.636;9.492;2024-01-10T07:27:09;98575.59;;;-3.82;71.41
84022;BME280;74108;48.636;9.492;2024-01-10T07:29:35;98583.53;;;-3.76;71.00
84022;BME280;74108;48.636;9.492;2024-01-10T07:32:00;98590.38;;;-3.76;70.64
84022;BME280;74108;48.636;9.492;2024-01-10T07:34:25;98594.16;;;-3.71;70.72
84022;BME280;74108;48.636;9.492;2024-01-10T07:36:51;98591.97;;;-3.66;70.41
84022;BME280;74108;48.636;9.492;2024-01-10T07:39:17;98598.47;;;-3.62;69.28
84022;BME280;74108;48.636;9.492;2024-01-10T07:41:44;98606.91;;;-3.51;69.00
84022;BME280;74108;48.636;9.492;2024-01-10T07:44:09;98605.28;;;-3.43;69.41
84022;BME280;74108;48.636;9.492;2024-01-10T07:46:35;98603.34;;;-3.31;70.36
84022;BME280;74108;48.636;9.492;2024-01-10T07:49:03;98609.81;;;-3.18;71.93
84022;BME280;74108;48.636;9.492;2024-01-10T07:51:29;98610.53;;;-2.98;70.21
84022;BME280;74108;48.636;9.492;2024-01-10T07:53:55;98614.56;;;-2.96;70.51
84022;BME280;74108;48.636;9.492;2024-01-10T07:56:21;98626.31;;;-2.93;69.68
84022;BME280;74108;48.636;9.492;2024-01-10T07:58:46;98628.47;;;-2.98;69.24
84022;BME280;74108;48.636;9.492;2024-01-10T08:01:12;98620.31;;;-2.84;70.06
84022;BME280;74108;48.636;9.492;2024-01-10T08:03:37;98623.28;;;-2.79;68.96
84022;BME280;74108;48.636;9.492;2024-01-10T08:06:03;98621.03;;;-2.64;69.48
84022;BME280;74108;48.636;9.492;2024-01-10T08:08:28;98628.81;;;-2.56;68.43
84022;BME280;74108;48.636;9.492;2024-01-10T08:10:55;98630.69;;;-2.31;68.11
84022;BME280;74108;48.636;9.492;2024-01-10T08:13:27;98634.75;;;-2.11;68.09
84022;BME280;74108;48.636;9.492;2024-01-10T08:15:53;98640.41;;;-2.07;68.95
84022;BME280;74108;48.636;9.492;2024-01-10T08:18:19;98630.28;;;-1.91;68.08
84022;BME280;74108;48.636;9.492;2024-01-10T08:20:44;98638.78;;;-1.91;66.56
84022;BME280;74108;48.636;9.492;2024-01-10T08:26:43;98622.00;;;-1.16;64.11
84022;BME280;74108;48.636;9.492;2024-01-10T08:29:32;98635.34;;;-0.87;62.30
84022;BME280;74108;48.636;9.492;2024-01-10T08:32:51;98633.53;;;-0.53;61.92
84022;BME280;74108;48.636;9.492;2024-01-10T08:35:39;98637.97;;;-0.37;59.99
84022;BME280;74108;48.636;9.492;2024-01-10T08:39:22;98638.97;;;-0.22;59.58
84022;BME280;74108;48.636;9.492;2024-01-10T08:42:24;98642.94;;;-0.44;60.41
84022;BME280;74108;48.636;9.492;2024-01-10T08:45:27;98639.38;;;-0.43;60.74
84022;BME280;74108;48.636;9.492;2024-01-10T08:48:00;98633.59;;;-0.37;60.55
84022;BME280;74108;48.636;9.492;2024-01-10T08:50:36;98650.53;;;-0.18;59.36
84022;BME280;74108;48.636;9.492;2024-01-10T08:53:05;98645.47;;;0.06;58.17
84022;BME280;74108;48.636;9.492;2024-01-10T08:55:36;98645.31;;;0.24;58.35
84022;BME280;74108;48.636;9.492;2024-01-10T09:01:12;98638.56;;;0.47;56.47
84022;BME280;74108;48.636;9.492;2024-01-10T09:03:50;98634.84;;;0.57;56.84
84022;BME280;74108;48.636;9.492;2024-01-10T09:06:16;98642.69;;;0.88;55.42
84022;BME280;74108;48.636;9.492;2024-01-10T09:08:52;98643.00;;;0.93;54.96
84022;BME280;74108;48.636;9.492;2024-01-10T09:11:17;98640.63;;;0.92;55.35
84022;BME280;74108;48.636;9.492;2024-01-10T09:13:43;98643.38;;;0.82;55.09
84022;BME280;74108;48.636;9.492;2024-01-10T09:16:11;98646.09;;;0.89;54.85
84022;BME280;74108;48.636;9.492;2024-01-10T09:18:43;98650.13;;;0.83;54.65
84022;BME280;74108;48.636;9.492;2024-01-10T09:25:04;98650.78;;;0.61;54.71
84022;BME280;74108;48.636;9.492;2024-01-10T09:35:31;98655.63;;;0.56;54.24
84022;BME280;74108;48.636;9.492;2024-01-10T09:37:56;98656.09;;;0.67;53.86
84022;BME280;74108;48.636;9.492;2024-01-10T09:40:22;98656.72;;;0.86;54.70
84022;BME280;74108;48.636;9.492;2024-01-10T09:42:49;98662.38;;;0.89;54.69
84022;BME280;74108;48.636;9.492;2024-01-10T09:45:20;98667.50;;;1.05;53.66
84022;BME280;74108;48.636;9.492;2024-01-10T09:47:48;98665.56;;;1.07;53.44
84022;BME280;74108;48.636;9.492;2024-01-10T09:50:14;98667.47;;;1.21;53.40
84022;BME280;74108;48.636;9.492;2024-01-10T09:53:06;98670.75;;;1.54;52.14
84022;BME280;74108;48.636;9.492;2024-01-10T09:55:36;98676.19;;;1.59;52.16
84022;BME280;74108;48.636;9.492;2024-01-10T09:58:04;98671.44;;;1.79;51.16
84022;BME280;74108;48.636;9.492;2024-01-10T10:00:31;98675.38;;;1.97;51.52
84022;BME280;74108;48.636;9.492;2024-01-10T10:02:59;98681.38;;;1.98;51.17
84022;BME280;74108;48.636;9.492;2024-01-10T10:05:26;98669.75;;;1.94;50.90
84022;BME280;74108;48.636;9.492;2024-01-10T10:07:52;98661.84;;;1.95;52.50
84022;BME280;74108;48.636;9.492;2024-01-10T10:10:21;98660.34;;;2.01;51.34
84022;BME280;74108;48.636;9.492;2024-01-10T10:12:48;98655.84;;;1.95;51.06
84022;BME280;74108;48.636;9.492;2024-01-10T10:15:15;98654.03;;;2.03;51.80
84022;BME280;74108;48.636;9.492;2024-01-10T10:17:43;98656.50;;;2.42;50.59
84022;BME280;74108;48.636;9.492;2024-01-10T10:20:26;98658.56;;;2.47;50.35
84022;BME280;74108;48.636;9.492;2024-01-10T10:22:59;98655.03;;;2.25;50.46
84022;BME280;74108;48.636;9.492;2024-01-10T10:27:55;98659.59;;;1.92;51.21
84022;BME280;74108;48.636;9.492;2024-01-10T10:30:20;98657.59;;;2.02;50.44
84022;BME280;74108;48.636;9.492;2024-01-10T10:32:45;98653.75;;;2.44;50.35
84022;BME280;74108;48.636;9.492;2024-01-10T10:35:17;98654.03;;;2.49;49.96
84022;BME280;74108;48.636;9.492;2024-01-10T10:38:27;98660.88;;;2.42;50.27
84022;BME280;74108;48.636;9.492;2024-01-10T10:41:43;98645.69;;;2.61;50.33
84022;BME280;74108;48.636;9.492;2024-01-10T10:47:45;98634.47;;;2.83;49.85
84022;BME280;74108;48.636;9.492;2024-01-10T10:50:56;98628.34;;;2.84;48.97
84022;BME280;74108;48.636;9.492;2024-01-10T10:53:34;98632.97;;;2.89;49.51
84022;BME280;74108;48.636;9.492;2024-01-10T10:56:13;98626.84;;;2.90;48.83
84022;BME280;74108;48.636;9.492;2024-01-10T10:58:41;98625.41;;;3.17;48.63
84022;BME280;74108;48.636;9.492;2024-01-10T11:01:08;98628.91;;;2.95;49.88
84022;BME280;74108;48.636;9.492;2024-01-10T11:03:36;98629.16;;;3.14;48.59
84022;BME280;74108;48.636;9.492;2024-01-10T11:06:06;98630.69;;;3.38;48.81
84022;BME280;74108;48.636;9.492;2024-01-10T11:08:48;98635.00;;;3.67;48.62
84022;BME280;74108;48.636;9.492;2024-01-10T11:11:42;98631.84;;;3.35;48.13
84022;BME280;74108;48.636;9.492;2024-01-10T11:20:33;98625.66;;;3.51;47.36
84022;BME280;74108;48.636;9.492;2024-01-10T11:23:10;98627.00;;;3.32;48.99
84022;BME280;74108;48.636;9.492;2024-01-10T11:25:41;98629.31;;;3.42;49.89
84022;BME280;74108;48.636;9.492;2024-01-10T11:28:06;98627.91;;;3.39;48.53
84022;BME280;74108;48.636;9.492;2024-01-10T11:30:36;98623.19;;;3.28;48.95
84022;BME280;74108;48.636;9.492;2024-01-10T11:33:33;98631.13;;;3.12;51.27
84022;BME280;74108;48.636;9.492;2024-01-10T11:36:20;98630.03;;;3.07;50.30
84022;BME280;74108;48.636;9.492;2024-01-10T11:38:59;98627.81;;;3.18;50.11
84022;BME280;74108;48.636;9.492;2024-01-10T11:41:34;98616.19;;;3.43;49.68
84022;BME280;74108;48.636;9.492;2024-01-10T11:46:45;98613.06;;;3.48;48.97
84022;BME280;74108;48.636;9.492;2024-01-10T11:49:13;98611.31;;;3.84;48.75
84022;BME280;74108;48.636;9.492;2024-01-10T11:51:48;98615.22;;;3.80;48.64
84022;BME280;74108;48.636;9.492;2024-01-10T11:57:00;98609.59;;;3.91;48.34
84022;BME280;74108;48.636;9.492;2024-01-10T11:59:27;98607.34;;;3.88;48.48
84022;BME280;74108;48.636;9.492;2024-01-10T12:01:54;98603.03;;;3.60;49.59
84022;BME280;74108;48.636;9.492;2024-01-10T12:04:19;98609.97;;;3.23;50.33
84022;BME280;74108;48.636;9.492;2024-01-10T12:06:45;98604.53;;;3.04;51.19
84022;BME280;74108;48.636;9.492;2024-01-10T12:09:12;98603.91;;;3.31;51.17
84022;BME280;74108;48.636;9.492;2024-01-10T12:11:39;98606.34;;;3.68;49.75
84022;BME280;74108;48.636;9.492;2024-01-10T12:14:06;98611.31;;;3.70;49.25
84022;BME280;74108;48.636;9.492;2024-01-10T12:16:35;98606.00;;;3.92;49.22
84022;BME280;74108;48.636;9.492;2024-01-10T12:19:00;98601.69;;;3.99;48.96
84022;BME280;74108;48.636;9.492;2024-01-10T12:21:26;98602.72;;;4.26;48.20
84022;BME280;74108;48.636;9.492;2024-01-10T12:23:51;98593.75;;;4.50;47.90
84022;BME280;74108;48.636;9.492;2024-01-10T12:26:18;98596.38;;;4.56;47.05
84022;BME280;74108;48.636;9.492;2024-01-10T12:28:57;98595.44;;;4.64;46.48
84022;BME280;74108;48.636;9.492;2024-01-10T12:31:32;98601.47;;;4.98;46.05
84022;BME280;74108;48.636;9.492;2024-01-10T12:34:00;98609.38;;;5.18;45.95
84022;BME280;74108;48.636;9.492;2024-01-10T12:36:26;98596.81;;;5.76;45.42
84022;BME280;74108;48.636;9.492;2024-01-10T12:38:51;98583.16;;;6.60;42.81
84022;BME280;74108;48.636;9.492;2024-01-10T12:41:18;98580.94;;;6.90;41.54
84022;BME280;74108;48.636;9.492;2024-01-10T12:43:49;98572.59;;;7.76;38.72
84022;BME280;74108;48.636;9.492;2024-01-10T12:46:16;98584.91;;;8.32;39.06
84022;BME280;74108;48.636;9.492;2024-01-10T12:48:42;98578.59;;;8.15;38.81
84022;BME280;74108;48.636;9.492;2024-01-10T12:51:08;98584.78;;;7.45;39.67
84022;BME280;74108;48.636;9.492;2024-01-10T12:53:39;98576.81;;;7.77;39.65
84022;BME280;74108;48.636;9.492;2024-01-10T12:56:06;98582.06;;;7.07;41.51
84022;BME280;74108;48.636;9.492;2024-01-10T12:58:33;98576.97;;;7.83;38.97
84022;BME280;74108;48.636;9.492;2024-01-10T13:01:00;98571.44;;;7.66;40.02
84022;BME280;74108;48.636;9.492;2024-01-10T13:03:25;98580.34;;;7.52;40.35
84022;BME280;74108;48.636;9.492;2024-01-10T13:05:51;98581.16;;;6.43;42.84
84022;BME280;74108;48.636;9.492;2024-01-10T13:08:18;98587.03;;;4.89;46.51
84022;BME280;74108;48.636;9.492;2024-01-10T13:10:46;98589.91;;;4.67;47.35
84022;BME280;74108;48.636;9.492;2024-01-10T13:13:12;98583.63;;;4.12;47.97
84022;BME280;74108;48.636;9.492;2024-01-10T13:15:40;98591.25;;;3.93;50.10
84022;BME280;74108;48.636;9.492;2024-01-10T13:18:05;98588.41;;;4.09;50.31
84022;BME280;74108;48.636;9.492;2024-01-10T13:20:32;98588.34;;;4.02;50.12
84022;BME280;74108;48.636;9.492;2024-01-10T13:22:57;98593.84;;;3.57;51.26
84022;BME280;74108;48.636;9.492;2024-01-10T13:25:24;98603.91;;;2.87;53.31
84022;BME280;74108;48.636;9.492;2024-01-10T13:27:50;98598.19;;;2.92;53.73
84022;BME280;74108;48.636;9.492;2024-01-10T13:30:19;98591.94;;;3.01;52.75
84022;BME280;74108;48.636;9.492;2024-01-10T13:32:48;98590.34;;;2.85;53.81
84022;BME280;74108;48.636;9.492;2024-01-10T13:35:13;98588.09;;;2.82;54.02
84022;BME280;74108;48.636;9.492;2024-01-10T13:37:39;98584.78;;;2.73;54.63
84022;BME280;74108;48.636;9.492;2024-01-10T13:40:07;98590.16;;;2.87;54.53
84022;BME280;74108;48.636;9.492;2024-01-10T13:42:33;98582.81;;;2.61;54.85
84022;BME280;74108;48.636;9.492;2024-01-10T13:45:05;98595.72;;;2.46;55.30